Beaverton, Canada
Current Conditions -  °F | °C
As of 9:17 PM on Saturday 22 Nov 2014 (Local Time) from CYQA Reporting Station
Haze Haze  
Wind Chill: 28°   Ceiling: 400
Heat Index: 34°   Visibility: 1.2mi
Dew Point: 34°   Wind: 7mph
Humidity: 100%   Direction: 190°S
Pressure: 29.86"   Gusts: NA
Location:  44.43°N, 79.15°W
Report Text: CYQA 230217Z AUTO 19006KT 1 1/4SM BR OVC004 01/01 A2986 RMK SLP125
Loading
Personal Weather Stations






























Interactive Weather Map New forecast layout! Learn more

10-Day Weather Forecast

Advertisements
Track Severe Weather on mobile